createdAt,value
2019-05-19T00:01:00.409Z,100367.69
2019-05-19T00:03:26.224Z,100365.83
2019-05-19T00:05:52.011Z,100374.41
2019-05-19T00:08:17.825Z,100375.73
2019-05-19T00:10:43.609Z,100369.87
2019-05-19T00:13:09.419Z,100369.73
2019-05-19T00:15:35.299Z,100371.36
2019-05-19T00:18:01.131Z,100366.41
2019-05-19T00:20:26.902Z,100361.89
2019-05-19T00:22:52.697Z,100365.97
2019-05-19T00:25:18.497Z,100367.09
2019-05-19T00:27:44.291Z,100372.37
2019-05-19T00:30:10.783Z,100369.56
2019-05-19T00:32:36.591Z,100367.16
2019-05-19T00:35:04.181Z,100370.78
2019-05-19T00:37:30.019Z,100367.72
2019-05-19T00:39:55.808Z,100368.09
2019-05-19T00:42:21.602Z,100368.09
2019-05-19T00:44:47.403Z,100370.86
2019-05-19T00:47:13.190Z,100368.47
2019-05-19T00:49:41.604Z,100377.20
2019-05-19T00:52:06.695Z,100382.30
2019-05-19T00:54:32.494Z,100376.57
2019-05-19T00:56:59.086Z,100376.70
2019-05-19T00:59:25.389Z,100369.80
2019-05-19T01:01:51.179Z,100368.81
2019-05-19T01:04:17.261Z,100367.66
2019-05-19T01:06:43.062Z,100365.80
2019-05-19T01:09:08.881Z,100359.23
2019-05-19T01:11:34.663Z,100358.68
2019-05-19T01:14:00.497Z,100354.04
2019-05-19T01:16:26.278Z,100353.62
2019-05-19T01:18:52.230Z,100361.36
2019-05-19T01:21:18.139Z,100355.52
2019-05-19T01:23:43.945Z,100348.74
2019-05-19T01:26:09.735Z,100350.23
2019-05-19T01:28:35.579Z,100350.09
2019-05-19T01:31:01.395Z,100347.83
2019-05-19T01:33:27.261Z,100352.02
2019-05-19T01:35:53.193Z,100348.19
2019-05-19T01:38:18.996Z,100336.02
2019-05-19T01:40:44.918Z,100339.33
2019-05-19T01:43:10.768Z,100338.72
2019-05-19T01:45:36.585Z,100335.41
2019-05-19T01:48:02.366Z,100332.86
2019-05-19T01:50:28.269Z,100332.63
2019-05-19T01:52:54.241Z,100324.20
2019-05-19T01:55:20.050Z,100315.52
2019-05-19T01:57:45.858Z,100328.06
2019-05-19T02:00:11.769Z,100325.21
2019-05-19T02:02:37.565Z,100323.55
2019-05-19T02:05:06.951Z,100330.02
2019-05-19T02:07:32.864Z,100333.78
2019-05-19T02:09:58.672Z,100334.09
2019-05-19T02:12:24.494Z,100341.42
2019-05-19T02:14:50.329Z,100339.63
2019-05-19T02:17:16.123Z,100339.96
2019-05-19T02:19:41.926Z,100342.84
2019-05-19T02:22:07.730Z,100337.41
2019-05-19T02:24:33.523Z,100343.27
2019-05-19T02:26:59.331Z,100340.61
2019-05-19T02:29:25.136Z,100340.50
2019-05-19T02:31:50.936Z,100340.55
2019-05-19T02:34:16.716Z,100335.22
2019-05-19T02:36:42.548Z,100335.36
2019-05-19T02:39:08.331Z,100334.01
2019-05-19T02:41:35.736Z,100331.61
2019-05-19T02:44:01.629Z,100332.58
2019-05-19T02:46:28.183Z,100329.03
2019-05-19T02:48:54.340Z,100325.59
2019-05-19T02:51:21.174Z,100325.59
2019-05-19T02:53:47.387Z,100331.38
2019-05-19T02:56:13.602Z,100328.67
2019-05-19T02:58:39.822Z,100323.92
2019-05-19T03:01:05.621Z,100329.56
2019-05-19T03:03:31.423Z,100331.53
2019-05-19T03:05:57.260Z,100335.91
2019-05-19T03:08:23.070Z,100343.78
2019-05-19T03:10:48.858Z,100352.29
2019-05-19T03:13:14.670Z,100351.78
2019-05-19T03:15:40.468Z,100348.38
2019-05-19T03:18:06.266Z,100345.02
2019-05-19T03:20:32.050Z,100339.73
2019-05-19T03:22:57.881Z,100343.17
2019-05-19T03:25:23.696Z,100342.17
2019-05-19T03:27:49.505Z,100341.13
2019-05-19T03:30:29.515Z,100347.20
2019-05-19T03:32:57.237Z,100351.56
2019-05-19T03:35:23.144Z,100360.49
2019-05-19T03:37:48.951Z,100348.51
2019-05-19T03:40:20.242Z,100357.23
2019-05-19T03:42:47.877Z,100352.33
2019-05-19T03:45:13.688Z,100347.03
2019-05-19T03:47:39.512Z,100356.34
2019-05-19T03:50:05.394Z,100355.80
2019-05-19T03:52:31.269Z,100365.74
2019-05-19T03:54:57.029Z,100355.58
2019-05-19T03:57:22.846Z,100360.76
2019-05-19T03:59:48.653Z,100367.91
2019-05-19T04:02:14.470Z,100371.55
2019-05-19T04:04:40.261Z,100376.65
2019-05-19T04:07:06.069Z,100368.41
2019-05-19T04:09:31.899Z,100378.42
2019-05-19T04:11:57.673Z,100379.58
2019-05-19T04:14:24.224Z,100381.05
2019-05-19T04:16:50.713Z,100378.16
2019-05-19T04:19:16.521Z,100372.70
2019-05-19T04:21:48.958Z,100372.70
2019-05-19T04:24:10.014Z,100377.38
2019-05-19T04:26:35.799Z,100368.14
2019-05-19T04:29:01.627Z,100374.48
2019-05-19T04:31:27.444Z,100381.24
2019-05-19T04:33:53.237Z,100383.98
2019-05-19T04:36:19.035Z,100382.94
2019-05-19T04:38:44.846Z,100385.41
2019-05-19T04:41:10.628Z,100388.92
2019-05-19T04:43:36.431Z,100390.33
2019-05-19T04:46:02.236Z,100390.27
2019-05-19T04:48:28.050Z,100393.84
2019-05-19T04:50:53.844Z,100392.33
2019-05-19T04:53:19.643Z,100382.52
2019-05-19T04:55:45.460Z,100386.70
2019-05-19T04:58:11.243Z,100375.45
2019-05-19T05:00:37.039Z,100372.86
2019-05-19T05:03:02.838Z,100373.02
2019-05-19T05:05:28.654Z,100376.92
2019-05-19T05:07:54.461Z,100380.63
2019-05-19T05:10:20.280Z,100380.05
2019-05-19T05:12:46.094Z,100373.47
2019-05-19T05:15:12.090Z,100370.97
2019-05-19T05:17:37.875Z,100374.41
2019-05-19T05:20:04.979Z,100365.20
2019-05-19T05:22:30.770Z,100372.51
2019-05-19T05:24:56.585Z,100370.17
2019-05-19T05:27:22.368Z,100369.91
2019-05-19T05:29:48.192Z,100374.70
2019-05-19T05:32:13.966Z,100376.01
2019-05-19T05:34:39.804Z,100376.23
2019-05-19T05:37:05.606Z,100368.17
2019-05-19T05:39:31.397Z,100377.11
2019-05-19T05:41:57.193Z,100373.05
2019-05-19T05:44:22.999Z,100372.92
2019-05-19T05:46:48.811Z,100379.66
2019-05-19T05:49:14.612Z,100377.92
2019-05-19T05:51:40.404Z,100384.84
2019-05-19T05:54:06.216Z,100376.77
2019-05-19T05:56:32.057Z,100374.34
2019-05-19T05:58:57.840Z,100374.34
2019-05-19T06:01:23.707Z,100382.80
2019-05-19T06:03:49.537Z,100383.78
2019-05-19T06:06:15.362Z,100383.66
2019-05-19T06:08:41.166Z,100380.57
2019-05-19T06:11:07.083Z,100380.58
2019-05-19T06:13:32.874Z,100378.53
2019-05-19T06:15:58.690Z,100378.31
2019-05-19T06:18:24.478Z,100382.94
2019-05-19T06:20:50.256Z,100381.45
2019-05-19T06:23:16.060Z,100395.44
2019-05-19T06:25:41.866Z,100390.14
2019-05-19T06:28:07.669Z,100393.70
2019-05-19T06:30:33.456Z,100401.17
2019-05-19T06:33:00.770Z,100404.78
2019-05-19T06:35:26.562Z,100400.72
2019-05-19T06:37:52.359Z,100396.66
2019-05-19T06:40:18.155Z,100397.88
2019-05-19T06:42:43.955Z,100397.44
2019-05-19T06:45:11.048Z,100402.50
2019-05-19T06:47:36.875Z,100402.64
2019-05-19T06:50:07.171Z,100405.34
2019-05-19T06:52:32.963Z,100397.53
2019-05-19T06:54:58.778Z,100391.94
2019-05-19T06:57:24.604Z,100396.01
2019-05-19T06:59:50.387Z,100395.25
2019-05-19T07:02:16.256Z,100399.87
2019-05-19T07:04:42.092Z,100394.80
2019-05-19T07:07:07.961Z,100396.08
2019-05-19T07:09:33.817Z,100400.44
2019-05-19T07:11:59.664Z,100403.61
2019-05-19T07:14:25.449Z,100405.42
2019-05-19T07:16:51.290Z,100403.99
2019-05-19T07:19:17.179Z,100405.64
2019-05-19T07:21:42.963Z,100413.86
2019-05-19T07:24:08.773Z,100405.27
2019-05-19T07:26:34.567Z,100396.77
2019-05-19T07:29:00.400Z,100399.81
2019-05-19T07:31:26.202Z,100391.58
2019-05-19T07:33:52.019Z,100397.43
2019-05-19T07:36:17.801Z,100401.33
2019-05-19T07:38:43.598Z,100407.66
2019-05-19T07:41:09.410Z,100397.13
2019-05-19T07:43:35.217Z,100389.73
2019-05-19T07:46:01.013Z,100383.25
2019-05-19T07:48:26.823Z,100388.49
2019-05-19T07:50:52.606Z,100395.83
2019-05-19T07:53:18.445Z,100390.09
2019-05-19T07:55:44.750Z,100393.36
2019-05-19T07:58:10.530Z,100385.48
2019-05-19T08:00:36.380Z,100390.61
2019-05-19T08:03:02.364Z,100389.64
2019-05-19T08:05:28.195Z,100391.17
2019-05-19T08:07:53.982Z,100396.52
2019-05-19T08:10:20.000Z,100392.61
2019-05-19T08:12:45.795Z,100395.97
2019-05-19T08:15:11.909Z,100391.81
2019-05-19T08:17:37.718Z,100391.94
2019-05-19T08:20:06.937Z,100391.88
2019-05-19T08:22:32.753Z,100389.50
2019-05-19T08:24:58.551Z,100396.63
2019-05-19T08:27:24.334Z,100390.63
2019-05-19T08:29:50.173Z,100398.33
2019-05-19T08:32:15.956Z,100386.22
2019-05-19T08:34:41.753Z,100392.11
2019-05-19T08:37:07.553Z,100391.05
2019-05-19T08:39:33.371Z,100395.50
2019-05-19T08:41:59.155Z,100396.85
2019-05-19T08:44:24.979Z,100407.64
2019-05-19T08:46:50.758Z,100405.63
2019-05-19T08:49:16.569Z,100401.94
2019-05-19T08:51:42.408Z,100409.10
2019-05-19T08:54:14.997Z,100406.45
2019-05-19T08:56:36.014Z,100415.27
2019-05-19T08:59:01.842Z,100415.34
2019-05-19T09:01:27.700Z,100415.34
2019-05-19T09:03:53.604Z,100414.25
2019-05-19T09:06:19.426Z,100415.53
2019-05-19T09:08:45.234Z,100414.27
2019-05-19T09:11:11.036Z,100411.45
2019-05-19T09:13:36.854Z,100412.89
2019-05-19T09:16:02.863Z,100405.91
2019-05-19T09:18:28.663Z,100407.75
2019-05-19T09:20:54.778Z,100409.71
2019-05-19T09:23:20.675Z,100405.25
2019-05-19T09:25:46.485Z,100400.30
2019-05-19T09:28:13.170Z,100399.89
2019-05-19T09:30:38.980Z,100395.23
2019-05-19T09:33:04.808Z,100387.88
2019-05-19T09:35:30.671Z,100312.41
2019-05-19T09:37:56.493Z,100383.02
2019-05-19T09:40:22.368Z,100376.49
2019-05-19T09:42:48.421Z,100375.72
2019-05-19T09:45:14.364Z,100369.20
2019-05-19T09:47:40.356Z,100373.03
2019-05-19T09:50:06.977Z,100337.92
2019-05-19T09:52:32.809Z,100371.64
2019-05-19T09:54:58.865Z,100373.28
2019-05-19T09:57:24.760Z,100370.22
2019-05-19T09:59:51.819Z,100378.47
2019-05-19T10:02:17.708Z,100375.97
2019-05-19T10:04:45.519Z,100382.29
2019-05-19T10:07:11.385Z,100380.42
2019-05-19T10:10:03.181Z,100379.60
2019-05-19T10:12:28.981Z,100376.55
2019-05-19T10:14:54.791Z,100377.96
2019-05-19T10:17:20.868Z,100379.27
2019-05-19T10:19:46.673Z,100374.70
2019-05-19T10:22:13.452Z,100371.11
2019-05-19T10:24:39.299Z,100373.00
2019-05-19T10:27:05.123Z,100368.27
2019-05-19T10:29:34.245Z,100383.77
2019-05-19T10:32:00.082Z,100370.89
2019-05-19T10:34:25.974Z,100371.41
2019-05-19T10:36:52.709Z,100372.37
2019-05-19T10:39:18.891Z,100375.79
2019-05-19T10:41:45.333Z,100367.22
2019-05-19T10:44:11.248Z,100371.06
2019-05-19T10:46:39.263Z,100368.55
2019-05-19T10:51:59.067Z,100367.70
2019-05-19T10:54:26.131Z,100365.20
2019-05-19T10:56:55.815Z,100364.98
2019-05-19T10:59:22.388Z,100361.03
2019-05-19T11:01:50.826Z,100357.89
2019-05-19T11:04:17.008Z,100356.79
2019-05-19T11:06:46.477Z,100354.20
2019-05-19T11:09:12.974Z,100354.78
2019-05-19T11:11:39.242Z,100347.25
2019-05-19T11:14:06.283Z,100345.03
2019-05-19T11:16:37.154Z,100346.67
2019-05-19T11:19:03.303Z,100360.81
2019-05-19T11:21:29.187Z,100350.79
2019-05-19T11:23:55.004Z,100349.95
2019-05-19T11:26:21.036Z,100352.31
2019-05-19T11:28:46.976Z,100351.55
2019-05-19T11:31:12.736Z,100351.77
2019-05-19T11:33:38.615Z,100353.90
2019-05-19T11:36:06.007Z,100345.36
2019-05-19T11:38:31.875Z,100352.42
2019-05-19T11:40:57.667Z,100342.88
2019-05-19T11:43:23.566Z,100344.94
2019-05-19T11:45:49.412Z,100339.00
2019-05-19T11:48:15.218Z,100339.11
2019-05-19T11:50:42.221Z,100332.42
2019-05-19T11:53:08.207Z,100333.64
2019-05-19T11:55:34.023Z,100331.59
2019-05-19T11:57:59.849Z,100332.51
2019-05-19T12:00:25.762Z,100326.53
2019-05-19T12:02:51.549Z,100332.56
2019-05-19T12:05:17.417Z,100327.55
2019-05-19T12:07:43.196Z,100325.27
2019-05-19T12:10:09.093Z,100317.53
2019-05-19T12:12:34.916Z,100323.61
2019-05-19T12:15:00.876Z,100319.25
2019-05-19T12:17:26.706Z,100324.08
2019-05-19T12:19:53.442Z,100325.98
2019-05-19T12:22:20.351Z,100326.97
2019-05-19T12:24:47.150Z,100324.80
2019-05-19T12:27:13.757Z,100327.14
2019-05-19T12:29:40.398Z,100326.27
2019-05-19T12:32:07.243Z,100323.70
2019-05-19T12:34:34.318Z,100319.99
2019-05-19T12:37:00.235Z,100318.20
2019-05-19T12:39:26.031Z,100321.70
2019-05-19T12:41:51.831Z,100320.80
2019-05-19T12:44:17.623Z,100311.48
2019-05-19T12:46:43.438Z,100321.40
2019-05-19T12:49:09.244Z,100312.08
2019-05-19T12:51:35.171Z,100307.73
2019-05-19T12:54:00.973Z,100310.27
2019-05-19T12:56:39.235Z,100314.67
2019-05-19T12:58:54.456Z,100309.52
2019-05-19T13:01:20.355Z,100307.42
2019-05-19T13:03:46.161Z,100307.66
2019-05-19T13:06:11.962Z,100308.47
2019-05-19T13:08:37.753Z,100308.56
2019-05-19T13:11:03.594Z,100300.73
2019-05-19T13:13:29.431Z,100299.05
2019-05-19T13:15:55.255Z,100299.70
2019-05-19T13:21:02.940Z,100293.20
2019-05-19T13:23:28.738Z,100290.11
2019-05-19T13:25:54.546Z,100290.83
2019-05-19T13:28:21.388Z,100288.62
2019-05-19T13:30:47.437Z,100279.17
2019-05-19T13:33:13.361Z,100280.89
2019-05-19T13:35:39.191Z,100277.36
2019-05-19T13:38:05.079Z,100285.00
2019-05-19T13:40:30.884Z,100276.72
2019-05-19T13:42:56.691Z,100277.37
2019-05-19T13:45:22.673Z,100284.27
2019-05-19T13:47:48.540Z,100279.05
2019-05-19T13:50:14.467Z,100278.02
2019-05-19T13:52:40.260Z,100274.08
2019-05-19T13:55:06.160Z,100270.73
2019-05-19T13:57:32.046Z,100273.57
2019-05-19T13:59:57.838Z,100266.97
2019-05-19T14:02:23.665Z,100269.98
2019-05-19T14:04:49.477Z,100264.36
2019-05-19T14:07:15.263Z,100257.66
2019-05-19T14:12:23.578Z,100253.66
2019-05-19T14:14:49.392Z,100253.92
2019-05-19T14:17:15.248Z,100253.38
2019-05-19T14:19:41.031Z,100260.16
2019-05-19T14:22:06.845Z,100257.11
2019-05-19T14:24:32.641Z,100257.19
2019-05-19T14:26:58.545Z,100263.41
2019-05-19T14:29:24.345Z,100259.28
2019-05-19T14:31:50.149Z,100255.95
2019-05-19T14:34:15.986Z,100252.70
2019-05-19T14:36:41.875Z,100253.33
2019-05-19T14:39:07.744Z,100250.58
2019-05-19T14:41:35.452Z,100255.87
2019-05-19T14:44:01.842Z,100260.91
2019-05-19T14:46:27.647Z,100256.95
2019-05-19T14:48:53.500Z,100257.32
2019-05-19T14:51:19.401Z,100263.06
2019-05-19T14:53:45.213Z,100262.75
2019-05-19T14:56:11.055Z,100267.61
2019-05-19T14:58:36.937Z,100268.29
2019-05-19T15:01:02.850Z,100260.15
2019-05-19T15:03:28.637Z,100266.32
2019-05-19T15:05:54.510Z,100260.62
2019-05-19T15:08:20.313Z,100254.70
2019-05-19T15:10:46.116Z,100259.67
2019-05-19T15:13:11.911Z,100261.84
2019-05-19T15:15:37.745Z,100257.92
2019-05-19T15:18:03.586Z,100249.52
2019-05-19T15:20:29.470Z,100243.29
2019-05-19T15:22:55.454Z,100248.28
2019-05-19T15:25:21.278Z,100250.59
2019-05-19T15:27:59.266Z,100254.44
2019-05-19T15:30:14.864Z,100254.44
2019-05-19T15:32:40.697Z,100250.31
2019-05-19T15:35:06.680Z,100235.64
2019-05-19T15:37:32.523Z,100231.22
2019-05-19T15:39:58.323Z,100232.22
2019-05-19T15:42:24.174Z,100233.66
2019-05-19T15:44:50.060Z,100233.13
2019-05-19T15:47:15.871Z,100227.56
2019-05-19T15:49:41.693Z,100228.50
2019-05-19T15:52:07.562Z,100224.61
2019-05-19T15:54:33.564Z,100220.45
2019-05-19T15:56:59.406Z,100220.66
2019-05-19T15:59:25.310Z,100226.00
2019-05-19T16:01:51.336Z,100218.47
2019-05-19T16:04:17.242Z,100219.84
2019-05-19T16:06:43.083Z,100216.91
2019-05-19T16:09:08.906Z,100217.17
2019-05-19T16:11:34.779Z,100213.18
2019-05-19T16:14:00.742Z,100217.16
2019-05-19T16:16:26.669Z,100226.36
2019-05-19T16:18:53.338Z,100216.64
2019-05-19T16:21:19.720Z,100216.45
2019-05-19T16:23:45.928Z,100219.77
2019-05-19T16:26:11.777Z,100227.36
2019-05-19T16:28:37.577Z,100227.17
2019-05-19T16:31:03.385Z,100221.97
2019-05-19T16:33:29.199Z,100224.34
2019-05-19T16:35:55.025Z,100220.77
2019-05-19T16:38:20.859Z,100225.20
2019-05-19T16:40:46.670Z,100223.72
2019-05-19T16:43:12.711Z,100215.30
2019-05-19T16:45:38.491Z,100218.83
2019-05-19T16:48:04.515Z,100217.23
2019-05-19T16:50:30.375Z,100222.46
2019-05-19T16:52:56.181Z,100220.00
2019-05-19T16:55:23.910Z,100220.61
2019-05-19T16:57:49.718Z,100205.27
2019-05-19T17:00:15.741Z,100206.11
2019-05-19T17:02:41.642Z,100210.50
2019-05-19T17:05:07.519Z,100210.50
2019-05-19T17:07:33.381Z,100205.83
2019-05-19T17:09:59.295Z,100205.01
2019-05-19T17:12:25.165Z,100209.13
2019-05-19T17:14:50.965Z,100209.92
2019-05-19T17:17:16.844Z,100205.25
2019-05-19T17:19:42.734Z,100204.17
2019-05-19T17:22:08.582Z,100216.39
2019-05-19T17:24:34.373Z,100217.70
2019-05-19T17:27:00.230Z,100223.42
2019-05-19T17:29:26.023Z,100225.33
2019-05-19T17:32:05.118Z,100217.64
2019-05-19T17:34:19.537Z,100212.41
2019-05-19T17:36:45.437Z,100220.30
2019-05-19T17:39:11.252Z,100220.57
2019-05-19T17:41:37.068Z,100219.49
2019-05-19T17:44:02.893Z,100216.75
2019-05-19T17:46:28.785Z,100209.16
2019-05-19T17:48:54.602Z,100215.99
2019-05-19T17:51:20.488Z,100216.59
2019-05-19T17:53:46.400Z,100218.23
2019-05-19T17:56:12.186Z,100214.94
2019-05-19T17:58:38.200Z,100215.75
2019-05-19T18:01:03.997Z,100219.60
2019-05-19T18:03:29.881Z,100218.77
2019-05-19T18:05:55.675Z,100223.11
2019-05-19T18:08:21.473Z,100227.17
2019-05-19T18:10:47.293Z,100232.88
2019-05-19T18:13:13.072Z,100235.85
2019-05-19T18:15:38.899Z,100239.63
2019-05-19T18:18:04.685Z,100236.59
2019-05-19T18:20:30.475Z,100233.45
2019-05-19T18:22:56.275Z,100225.77
2019-05-19T18:25:22.122Z,100232.53
2019-05-19T18:27:47.909Z,100221.27
2019-05-19T18:30:14.025Z,100226.06
2019-05-19T18:32:39.875Z,100222.21
2019-05-19T18:35:05.784Z,100227.49
2019-05-19T18:37:31.598Z,100222.20
2019-05-19T18:39:57.407Z,100228.03
2019-05-19T18:42:23.203Z,100230.19
2019-05-19T18:44:49.001Z,100235.08
2019-05-19T18:47:14.814Z,100229.86
2019-05-19T18:49:40.619Z,100235.27
2019-05-19T18:52:06.610Z,100223.67
2019-05-19T18:54:32.407Z,100232.53
2019-05-19T18:56:58.225Z,100240.91
2019-05-19T18:59:24.033Z,100244.39
2019-05-19T19:01:49.854Z,100244.92
2019-05-19T19:04:15.688Z,100235.39
2019-05-19T19:06:41.482Z,100235.39
2019-05-19T19:09:07.289Z,100245.71
2019-05-19T19:11:36.030Z,100252.10
2019-05-19T19:14:01.850Z,100253.93
2019-05-19T19:16:27.673Z,100240.11
2019-05-19T19:18:53.481Z,100240.11
2019-05-19T19:21:19.278Z,100254.47
2019-05-19T19:23:45.110Z,100248.56
2019-05-19T19:26:11.315Z,100264.63
2019-05-19T19:28:37.686Z,100262.16
2019-05-19T19:31:03.589Z,100259.19
2019-05-19T19:33:29.389Z,100264.34
2019-05-19T19:35:55.200Z,100267.50
2019-05-19T19:38:21.024Z,100263.83
2019-05-19T19:40:46.829Z,100255.47
2019-05-19T19:43:12.630Z,100272.52
2019-05-19T19:45:38.503Z,100272.23
2019-05-19T19:48:04.313Z,100268.64
2019-05-19T19:50:30.207Z,100273.61
2019-05-19T19:52:56.311Z,100275.66
2019-05-19T19:55:22.085Z,100272.34
2019-05-19T19:57:47.891Z,100274.09
2019-05-19T20:00:29.220Z,100273.77
2019-05-19T20:02:55.009Z,100265.14
2019-05-19T20:05:20.821Z,100261.71
2019-05-19T20:07:46.629Z,100267.87
2019-05-19T20:10:12.426Z,100269.99
2019-05-19T20:12:38.248Z,100272.24
2019-05-19T20:15:04.546Z,100279.20
2019-05-19T20:17:30.345Z,100283.48
2019-05-19T20:19:56.151Z,100280.94
2019-05-19T20:22:22.001Z,100282.00
2019-05-19T20:24:48.049Z,100282.30
2019-05-19T20:27:13.944Z,100281.58
2019-05-19T20:29:40.005Z,100281.19
2019-05-19T20:32:06.075Z,100283.60
2019-05-19T20:34:31.858Z,100284.25
2019-05-19T20:36:57.668Z,100292.73
2019-05-19T20:39:23.460Z,100287.03
2019-05-19T20:41:49.241Z,100289.97
2019-05-19T20:44:15.032Z,100286.77
2019-05-19T20:46:41.168Z,100279.04
2019-05-19T20:49:06.976Z,100284.97
2019-05-19T20:51:32.783Z,100276.73
2019-05-19T20:53:58.756Z,100283.98
2019-05-19T20:56:26.054Z,100286.81
2019-05-19T20:58:51.859Z,100283.53
2019-05-19T21:01:17.674Z,100287.17
2019-05-19T21:03:43.470Z,100285.95
2019-05-19T21:06:09.260Z,100289.17
2019-05-19T21:08:35.077Z,100287.72
2019-05-19T21:11:00.866Z,100284.62
2019-05-19T21:13:26.689Z,100285.27
2019-05-19T21:15:52.501Z,100282.31
2019-05-19T21:18:18.316Z,100280.08
2019-05-19T21:20:44.134Z,100282.41
2019-05-19T21:23:10.632Z,100277.17
2019-05-19T21:25:36.560Z,100280.59
2019-05-19T21:28:02.937Z,100273.20
2019-05-19T21:30:28.845Z,100275.36
2019-05-19T21:32:54.637Z,100270.35
2019-05-19T21:35:20.456Z,100270.65
2019-05-19T21:37:46.230Z,100270.30
2019-05-19T21:40:12.146Z,100266.12
2019-05-19T21:42:37.948Z,100270.89
2019-05-19T21:45:05.264Z,100274.56
2019-05-19T21:47:31.066Z,100266.22
2019-05-19T21:49:56.889Z,100265.36
2019-05-19T21:52:22.693Z,100270.61
2019-05-19T21:54:48.503Z,100266.91
2019-05-19T21:57:14.285Z,100259.04
2019-05-19T21:59:40.102Z,100272.66
2019-05-19T22:02:06.415Z,100265.28
2019-05-19T22:04:32.191Z,100275.27
2019-05-19T22:06:59.910Z,100270.49
2019-05-19T22:09:25.698Z,100274.47
2019-05-19T22:11:51.495Z,100281.86
2019-05-19T22:14:17.325Z,100285.63
2019-05-19T22:16:43.143Z,100292.26
2019-05-19T22:19:08.942Z,100297.03
2019-05-19T22:21:34.730Z,100294.73
2019-05-19T22:24:00.541Z,100294.63
2019-05-19T22:26:26.346Z,100294.45
2019-05-19T22:28:52.162Z,100295.22
2019-05-19T22:31:17.957Z,100291.84
2019-05-19T22:33:43.765Z,100286.77
2019-05-19T22:36:09.606Z,100283.36
2019-05-19T22:38:35.401Z,100283.36
2019-05-19T22:41:01.202Z,100281.76
2019-05-19T22:43:27.006Z,100265.47
2019-05-19T22:45:52.817Z,100269.19
2019-05-19T22:48:18.609Z,100267.03
2019-05-19T22:50:44.417Z,100266.98
2019-05-19T22:53:10.221Z,100264.94
2019-05-19T22:55:36.025Z,100262.92
2019-05-19T22:58:01.835Z,100263.44
2019-05-19T23:00:28.347Z,100266.55
2019-05-19T23:02:54.135Z,100261.67
2019-05-19T23:05:19.947Z,100265.28
2019-05-19T23:07:45.745Z,100263.87
2019-05-19T23:10:12.127Z,100261.39
2019-05-19T23:12:37.927Z,100262.66
2019-05-19T23:15:05.020Z,100259.73
2019-05-19T23:17:30.838Z,100259.32
2019-05-19T23:19:56.621Z,100263.66
2019-05-19T23:22:22.526Z,100257.63
2019-05-19T23:24:48.343Z,100261.04
2019-05-19T23:27:14.155Z,100254.20
2019-05-19T23:29:39.963Z,100247.51
2019-05-19T23:32:07.391Z,100243.80
2019-05-19T23:34:33.363Z,100238.98
2019-05-19T23:36:59.158Z,100250.64
2019-05-19T23:39:25.069Z,100255.85
2019-05-19T23:41:50.914Z,100249.55
2019-05-19T23:44:16.687Z,100246.84
2019-05-19T23:46:42.467Z,100244.70
2019-05-19T23:49:08.265Z,100249.77
2019-05-19T23:51:34.064Z,100240.55
2019-05-19T23:53:59.881Z,100245.61
2019-05-19T23:56:25.665Z,100234.38
2019-05-19T23:58:51.451Z,100234.38
